createdAt,value
2023-05-12T00:01:21.808Z,15.52
2023-05-12T00:03:49.280Z,19.42
2023-05-12T00:06:16.532Z,18.10
2023-05-12T00:08:43.933Z,18.58
2023-05-12T00:11:11.307Z,21.48
2023-05-12T00:13:38.604Z,21.55
2023-05-12T00:16:06.094Z,23.92
2023-05-12T00:18:33.379Z,20.67
2023-05-12T00:21:00.507Z,25.20
2023-05-12T00:23:27.659Z,22.38
2023-05-12T00:25:54.799Z,22.65
2023-05-12T00:28:22.080Z,18.85
2023-05-12T00:30:49.234Z,17.75
2023-05-12T00:33:17.335Z,15.23
2023-05-12T00:35:47.356Z,17.08
2023-05-12T00:38:14.558Z,19.38
2023-05-12T00:40:42.117Z,17.25
2023-05-12T00:43:09.379Z,19.60
2023-05-12T00:45:37.237Z,18.52
2023-05-12T00:48:06.345Z,15.65
2023-05-12T00:50:33.552Z,19.15
2023-05-12T00:53:02.124Z,16.98
2023-05-12T00:55:31.217Z,21.85
2023-05-12T00:57:59.802Z,19.70
2023-05-12T01:00:28.399Z,20.63
2023-05-12T01:02:58.955Z,21.00
2023-05-12T01:05:42.838Z,25.25
2023-05-12T01:08:11.909Z,19.75
2023-05-12T01:10:44.322Z,20.60
2023-05-12T01:13:11.993Z,20.55
2023-05-12T01:15:44.782Z,22.52
2023-05-12T01:18:13.020Z,22.92
2023-05-12T01:20:42.990Z,21.45
2023-05-12T01:23:14.141Z,20.63
2023-05-12T01:25:42.314Z,23.80
2023-05-12T01:28:10.234Z,27.70
2023-05-12T01:30:43.668Z,27.30
2023-05-12T01:33:13.226Z,26.85
2023-05-12T01:35:40.362Z,25.00
2023-05-12T01:38:07.510Z,24.77
2023-05-12T01:40:38.249Z,28.90
2023-05-12T01:43:05.688Z,20.00
2023-05-12T01:45:33.756Z,30.15
2023-05-12T01:48:01.133Z,23.05
2023-05-12T01:50:28.615Z,22.20
2023-05-12T01:52:56.034Z,24.60
2023-05-12T01:55:24.734Z,26.90
2023-05-12T01:57:57.228Z,21.65
2023-05-12T02:00:24.522Z,29.55
2023-05-12T02:02:54.591Z,26.90
2023-05-12T02:05:22.350Z,27.08
2023-05-12T02:07:51.268Z,25.13
2023-05-12T02:10:18.799Z,33.47
2023-05-12T02:12:46.585Z,32.38
2023-05-12T02:15:13.975Z,24.77
2023-05-12T02:17:45.250Z,24.75
2023-05-12T02:20:13.799Z,27.77
2023-05-12T02:22:40.960Z,26.00
2023-05-12T02:25:08.720Z,32.95
2023-05-12T02:27:36.573Z,23.23
2023-05-12T02:30:04.766Z,27.77
2023-05-12T02:32:33.828Z,25.70
2023-05-12T02:35:01.219Z,28.38
2023-05-12T02:37:28.886Z,26.98
2023-05-12T02:39:56.121Z,29.23
2023-05-12T02:42:23.999Z,26.05
2023-05-12T02:44:51.150Z,25.35
2023-05-12T02:47:18.411Z,27.48
2023-05-12T02:49:45.548Z,28.88
2023-05-12T02:52:13.727Z,27.17
2023-05-12T03:18:59.596Z,24.90
2023-05-12T03:21:28.662Z,27.80
2023-05-12T03:23:57.477Z,28.90
2023-05-12T03:26:25.822Z,31.13
2023-05-12T03:28:53.245Z,28.13
2023-05-12T03:31:20.635Z,28.38
2023-05-12T03:33:47.923Z,27.25
2023-05-12T03:36:15.070Z,27.02
2023-05-12T03:38:42.290Z,29.70
2023-05-12T03:41:09.478Z,21.63
2023-05-12T03:43:36.862Z,24.42
2023-05-12T03:46:04.210Z,22.13
2023-05-12T03:48:31.638Z,22.30
2023-05-12T03:50:59.244Z,20.10
2023-05-12T03:53:26.420Z,15.95
2023-05-12T03:55:53.600Z,20.90
2023-05-12T03:58:22.487Z,22.38
2023-05-12T04:00:50.341Z,26.02
2023-05-12T04:03:17.938Z,26.77
2023-05-12T04:05:45.329Z,24.17
2023-05-12T04:08:12.743Z,21.58
2023-05-12T04:10:40.563Z,27.40
2023-05-12T04:13:11.010Z,29.35
2023-05-12T04:15:38.107Z,17.85
2023-05-12T04:18:05.332Z,18.73
2023-05-12T04:20:32.461Z,24.90
2023-05-12T04:22:59.600Z,22.30
2023-05-12T04:25:26.761Z,19.83
2023-05-12T04:27:53.952Z,18.38
2023-05-12T04:30:22.217Z,23.60
2023-05-12T04:32:50.189Z,26.30
2023-05-12T04:35:17.369Z,21.92
2023-05-12T04:37:44.615Z,24.73
2023-05-12T04:40:11.959Z,23.08
2023-05-12T04:42:39.276Z,25.30
2023-05-12T04:45:09.034Z,24.92
2023-05-12T04:47:36.990Z,19.63
2023-05-12T04:50:07.466Z,22.77
2023-05-12T04:52:34.605Z,26.63
2023-05-12T04:55:01.764Z,26.02
2023-05-12T04:57:29.197Z,23.00
2023-05-12T04:59:58.549Z,28.17
2023-05-12T05:02:28.101Z,22.77
2023-05-12T05:04:55.476Z,23.95
2023-05-12T05:07:24.754Z,26.63
2023-05-12T05:09:51.920Z,21.13
2023-05-12T05:12:19.243Z,27.65
2023-05-12T05:14:46.700Z,26.42
2023-05-12T05:17:14.008Z,24.67
2023-05-12T05:19:54.970Z,21.58
2023-05-12T05:22:26.449Z,27.17
2023-05-12T05:24:53.922Z,27.35
2023-05-12T05:27:21.161Z,27.80
2023-05-12T05:29:49.481Z,24.08
2023-05-12T05:32:17.156Z,28.05
2023-05-12T05:34:45.010Z,30.85
2023-05-12T05:37:13.019Z,33.92
2023-05-12T05:39:40.644Z,30.73
2023-05-12T05:42:07.807Z,26.60
2023-05-12T05:44:36.109Z,31.13
2023-05-12T05:47:05.634Z,35.05
2023-05-12T05:49:32.893Z,30.50
2023-05-12T05:52:01.235Z,28.67
2023-05-12T05:54:28.844Z,28.50
2023-05-12T05:56:56.104Z,34.17
2023-05-12T05:59:24.539Z,27.70
2023-05-12T06:01:52.017Z,33.15
2023-05-12T06:04:19.335Z,35.90
2023-05-12T06:06:46.966Z,33.17
2023-05-12T06:09:15.647Z,37.53
2023-05-12T06:11:42.727Z,34.22
2023-05-12T06:14:09.831Z,32.38
2023-05-12T06:16:36.984Z,30.90
2023-05-12T06:19:04.363Z,31.95
2023-05-12T06:21:32.309Z,38.25
2023-05-12T06:23:59.639Z,30.65
2023-05-12T06:26:26.754Z,34.53
2023-05-12T06:28:56.351Z,33.35
2023-05-12T06:31:23.534Z,31.20
2023-05-12T06:33:50.908Z,33.22
2023-05-12T06:36:18.016Z,33.78
2023-05-12T06:38:45.307Z,34.70
2023-05-12T06:41:13.810Z,35.47
2023-05-12T06:43:42.920Z,37.13
2023-05-12T06:46:12.906Z,41.35
2023-05-12T06:48:42.927Z,34.20
2023-05-12T06:51:10.197Z,38.08
2023-05-12T06:53:38.237Z,32.03
2023-05-12T06:56:06.292Z,34.90
2023-05-12T06:58:33.659Z,37.85
2023-05-12T07:01:00.813Z,35.80
2023-05-12T07:03:28.081Z,45.10
2023-05-12T07:05:55.279Z,42.30
2023-05-12T07:08:23.477Z,41.58
2023-05-12T07:10:50.841Z,41.55
2023-05-12T07:13:19.118Z,44.83
2023-05-12T07:15:46.339Z,39.90
2023-05-12T07:18:13.982Z,39.90
2023-05-12T07:20:41.265Z,45.40
2023-05-12T07:23:09.401Z,37.65
2023-05-12T07:25:36.678Z,40.35
2023-05-12T07:28:04.005Z,37.92
2023-05-12T07:30:31.387Z,33.97
2023-05-12T07:32:58.513Z,32.00
2023-05-12T07:35:25.688Z,27.02
2023-05-12T07:37:59.573Z,26.88
2023-05-12T07:40:27.237Z,24.73
2023-05-12T07:42:58.288Z,27.20
2023-05-12T07:45:25.810Z,37.13
2023-05-12T07:47:55.043Z,31.85
2023-05-12T07:50:22.329Z,33.53
2023-05-12T07:52:51.267Z,31.80
2023-05-12T07:55:19.747Z,30.02
2023-05-12T07:57:47.659Z,31.55
2023-05-12T08:00:15.853Z,29.70
2023-05-12T08:02:43.474Z,22.65
2023-05-12T08:05:11.457Z,25.40
2023-05-12T08:07:41.182Z,25.73
2023-05-12T08:10:09.304Z,31.42
2023-05-12T08:12:36.459Z,26.00
2023-05-12T08:15:03.753Z,25.75
2023-05-12T08:17:31.001Z,23.92
2023-05-12T08:19:58.150Z,27.15
2023-05-12T08:22:25.354Z,25.58
2023-05-12T08:24:55.501Z,32.30
2023-05-12T08:27:22.676Z,37.63
2023-05-12T08:29:49.817Z,34.15
2023-05-12T08:32:16.938Z,34.38
2023-05-12T08:34:47.360Z,33.10
2023-05-12T08:37:14.615Z,34.40
2023-05-12T08:39:41.865Z,35.03
2023-05-12T08:42:39.661Z,28.52
2023-05-12T08:45:07.992Z,35.70
2023-05-12T08:47:36.771Z,31.30
2023-05-12T08:50:05.687Z,35.40
2023-05-12T08:52:34.544Z,32.95
2023-05-12T08:55:03.521Z,27.85
2023-05-12T08:57:31.741Z,29.73
2023-05-12T09:00:00.220Z,25.10
2023-05-12T09:02:37.679Z,26.27
2023-05-12T09:05:11.426Z,28.17
2023-05-12T09:07:44.023Z,24.20
2023-05-12T09:10:33.497Z,23.15
2023-05-12T09:13:16.682Z,16.58
2023-05-12T09:15:45.990Z,18.30
2023-05-12T09:18:14.198Z,21.02
2023-05-12T09:20:41.324Z,20.70
2023-05-12T09:23:21.803Z,20.02
2023-05-12T09:26:01.363Z,25.60
2023-05-12T09:28:38.766Z,24.00
2023-05-12T09:31:16.389Z,22.75
2023-05-12T09:33:43.653Z,20.27
2023-05-12T09:36:11.145Z,20.15
2023-05-12T09:38:38.388Z,20.33
2023-05-12T09:41:05.646Z,19.55
2023-05-12T09:43:33.074Z,17.55
2023-05-12T09:46:06.289Z,16.35
2023-05-12T09:48:33.898Z,18.50
2023-05-12T09:51:01.116Z,19.38
2023-05-12T09:53:28.319Z,20.35
2023-05-12T09:55:55.418Z,18.88
2023-05-12T09:58:28.278Z,20.35
2023-05-12T10:03:30.797Z,15.63
2023-05-12T10:06:04.559Z,16.80
2023-05-12T10:08:43.940Z,22.17
2023-05-12T10:11:11.668Z,18.35
2023-05-12T10:13:39.631Z,12.20
2023-05-12T10:16:07.980Z,13.05
2023-05-12T10:18:36.157Z,13.57
2023-05-12T10:21:04.217Z,16.10
2023-05-12T10:23:31.996Z,13.68
2023-05-12T10:26:02.381Z,16.92
2023-05-12T10:28:30.999Z,16.48
2023-05-12T10:30:59.301Z,17.10
2023-05-12T10:33:27.634Z,16.15
2023-05-12T10:35:56.620Z,16.90
2023-05-12T10:38:23.924Z,13.20
2023-05-12T10:41:01.537Z,18.48
2023-05-12T10:43:32.512Z,18.73
2023-05-12T10:46:20.939Z,16.13
2023-05-12T10:49:00.881Z,17.33
2023-05-12T10:51:30.407Z,19.17
2023-05-12T10:54:00.110Z,20.55
2023-05-12T10:56:42.475Z,17.63
2023-05-12T10:59:32.184Z,18.40
2023-05-12T11:02:05.555Z,17.23
2023-05-12T11:04:51.567Z,13.38
2023-05-12T11:07:24.717Z,18.77
2023-05-12T11:09:57.708Z,16.27
2023-05-12T11:12:32.188Z,24.52
2023-05-12T11:15:04.258Z,19.33
2023-05-12T11:17:32.164Z,18.80
2023-05-12T11:20:01.374Z,18.13
2023-05-12T11:22:29.273Z,20.33
2023-05-12T11:24:56.536Z,17.15
2023-05-12T11:27:24.274Z,18.95
2023-05-12T11:30:02.696Z,15.82
2023-05-12T11:32:30.424Z,17.58
2023-05-12T11:35:15.319Z,17.58
2023-05-12T11:37:44.248Z,19.33
2023-05-12T11:40:22.555Z,17.17
2023-05-12T11:42:53.071Z,18.52
2023-05-12T11:45:30.017Z,19.90
2023-05-12T11:48:13.993Z,15.27
2023-05-12T11:50:43.624Z,14.02
2023-05-12T11:53:16.339Z,18.77
2023-05-12T11:55:54.967Z,16.77
2023-05-12T11:58:26.583Z,15.98
2023-05-12T12:00:55.352Z,15.10
2023-05-12T12:03:23.098Z,16.80
2023-05-12T12:06:01.352Z,17.15
2023-05-12T12:08:28.811Z,17.33
2023-05-12T12:10:56.016Z,16.10
2023-05-12T12:13:24.746Z,15.93
2023-05-12T12:15:52.661Z,16.33
2023-05-12T12:18:19.958Z,16.90
2023-05-12T12:20:47.708Z,15.70
2023-05-12T12:23:15.011Z,16.60
2023-05-12T12:25:42.178Z,18.38
2023-05-12T12:28:09.398Z,16.13
2023-05-12T12:30:36.535Z,17.60
2023-05-12T12:33:03.809Z,15.70
2023-05-12T12:35:31.390Z,14.55
2023-05-12T12:37:58.733Z,17.73
2023-05-12T12:40:25.867Z,15.48
2023-05-12T12:42:53.490Z,16.15
2023-05-12T12:45:20.800Z,15.90
2023-05-12T12:47:48.164Z,13.60
2023-05-12T12:50:15.375Z,15.98
2023-05-12T12:52:43.254Z,13.68
2023-05-12T12:55:10.472Z,15.82
2023-05-12T12:57:38.929Z,14.13
2023-05-12T13:00:08.625Z,11.23
2023-05-12T13:02:37.460Z,12.90
2023-05-12T13:05:07.084Z,11.73
2023-05-12T13:07:34.704Z,10.40
2023-05-12T13:10:01.965Z,10.55
2023-05-12T13:12:30.630Z,10.57
2023-05-12T13:15:00.258Z,9.95
2023-05-12T13:17:28.931Z,9.13
2023-05-12T13:19:56.197Z,10.23
2023-05-12T13:22:23.344Z,10.98
2023-05-12T13:24:50.464Z,10.15
2023-05-12T13:27:18.140Z,8.88
2023-05-12T13:29:47.545Z,9.80
2023-05-12T13:32:17.821Z,10.00
2023-05-12T13:34:46.353Z,10.48
2023-05-12T13:37:13.516Z,9.20
2023-05-12T13:39:40.741Z,8.27
2023-05-12T13:42:07.980Z,9.38
2023-05-12T13:44:35.110Z,9.73
2023-05-12T13:47:02.631Z,12.02
2023-05-12T13:49:29.828Z,9.60
2023-05-12T13:51:57.079Z,8.82
2023-05-12T13:54:25.006Z,8.13
2023-05-12T13:56:52.242Z,9.57
2023-05-12T13:59:20.555Z,7.35
2023-05-12T14:01:48.068Z,9.23
2023-05-12T14:04:15.241Z,7.70
2023-05-12T14:06:42.612Z,9.43
2023-05-12T14:09:10.214Z,9.77
2023-05-12T14:11:37.335Z,11.05
2023-05-12T14:14:06.373Z,10.52
2023-05-12T14:16:33.838Z,11.27
2023-05-12T14:19:01.279Z,11.73
2023-05-12T14:21:28.513Z,10.77
2023-05-12T14:23:55.698Z,12.80
2023-05-12T14:26:22.865Z,11.02
2023-05-12T14:28:50.328Z,15.25
2023-05-12T14:31:18.063Z,13.25
2023-05-12T14:33:45.292Z,12.88
2023-05-12T14:36:12.421Z,13.77
2023-05-12T14:38:39.633Z,12.73
2023-05-12T14:41:08.573Z,13.38
2023-05-12T14:43:35.933Z,13.65
2023-05-12T14:46:06.680Z,12.80
2023-05-12T14:48:34.239Z,11.73
2023-05-12T14:51:03.419Z,14.70
2023-05-12T14:53:31.892Z,11.55
2023-05-12T14:55:59.028Z,12.80
2023-05-12T14:58:26.363Z,12.93
2023-05-12T15:00:53.717Z,17.60
2023-05-12T15:03:21.397Z,16.30
2023-05-12T15:08:21.882Z,11.48
2023-05-12T15:10:49.273Z,14.90
2023-05-12T15:13:18.655Z,12.88
2023-05-12T15:15:47.015Z,15.77
2023-05-12T15:18:14.346Z,13.68
2023-05-12T15:20:41.558Z,16.02
2023-05-12T15:23:08.649Z,14.88
2023-05-12T15:25:39.318Z,13.40
2023-05-12T15:28:06.690Z,12.82
2023-05-12T15:30:35.820Z,13.63
2023-05-12T15:33:06.685Z,14.15
2023-05-12T15:35:34.525Z,13.90
2023-05-12T15:38:01.932Z,14.55
2023-05-12T15:40:31.134Z,15.38
2023-05-12T15:42:58.595Z,15.75
2023-05-12T15:45:25.785Z,20.27
2023-05-12T15:47:53.138Z,16.17
2023-05-12T15:50:22.978Z,16.52
2023-05-12T15:52:50.506Z,18.13
2023-05-12T15:55:18.210Z,16.30
2023-05-12T15:57:45.592Z,18.52
2023-05-12T16:00:13.404Z,19.90
2023-05-12T16:02:40.787Z,20.17
2023-05-12T16:05:09.508Z,15.55
2023-05-12T16:07:36.680Z,13.38
2023-05-12T16:10:04.136Z,17.85
2023-05-12T16:12:31.625Z,16.00
2023-05-12T16:14:59.493Z,17.42
2023-05-12T16:17:27.964Z,17.98
2023-05-12T16:19:57.061Z,18.05
2023-05-12T16:22:24.329Z,17.17
2023-05-12T16:24:51.512Z,17.10
2023-05-12T16:27:18.715Z,14.45
2023-05-12T16:29:47.405Z,16.05
2023-05-12T16:32:14.611Z,16.85
2023-05-12T16:34:41.731Z,15.10
2023-05-12T16:37:08.916Z,14.98
2023-05-12T16:39:36.739Z,17.50
2023-05-12T16:42:04.114Z,12.43
2023-05-12T16:44:31.177Z,14.75
2023-05-12T16:46:58.336Z,16.63
2023-05-12T16:49:25.430Z,11.50
2023-05-12T16:51:52.532Z,13.05
2023-05-12T16:54:19.651Z,12.15
2023-05-12T16:56:47.488Z,10.57
2023-05-12T16:59:14.970Z,10.43
2023-05-12T17:01:42.085Z,11.43
2023-05-12T17:04:11.940Z,9.57
2023-05-12T17:06:39.125Z,10.60
2023-05-12T17:09:06.449Z,8.98
2023-05-12T17:11:33.784Z,8.38
2023-05-12T17:14:01.034Z,7.95
2023-05-12T17:16:28.845Z,7.43
2023-05-12T17:21:26.967Z,7.55
2023-05-12T17:23:54.571Z,9.88
2023-05-12T17:26:24.177Z,7.72
2023-05-12T17:28:51.480Z,9.30
2023-05-12T17:31:18.589Z,6.53
2023-05-12T17:33:45.793Z,6.80
2023-05-12T17:36:13.476Z,5.90
2023-05-12T17:38:41.477Z,6.43
2023-05-12T17:41:08.689Z,5.43
2023-05-12T17:43:35.939Z,6.20
2023-05-12T17:46:07.833Z,8.48
2023-05-12T17:48:35.298Z,5.95
2023-05-12T17:51:03.469Z,5.22
2023-05-12T17:53:31.413Z,5.28
2023-05-12T17:55:59.295Z,5.28
2023-05-12T17:58:26.603Z,5.38
2023-05-12T18:00:54.970Z,5.38
2023-05-12T18:03:24.116Z,4.45
2023-05-12T18:05:53.456Z,6.18
2023-05-12T18:08:20.968Z,4.00
2023-05-12T18:10:48.303Z,4.93
2023-05-12T18:13:15.642Z,4.30
2023-05-12T18:15:43.306Z,4.63
2023-05-12T18:18:11.006Z,4.45
2023-05-12T18:20:38.645Z,4.35
2023-05-12T18:23:05.829Z,3.78
2023-05-12T18:25:34.065Z,4.93
2023-05-12T18:28:02.673Z,3.92
2023-05-12T18:30:29.949Z,4.35
2023-05-12T18:32:57.228Z,3.80
2023-05-12T18:35:25.128Z,5.28
2023-05-12T18:37:52.294Z,4.30
2023-05-12T18:40:19.653Z,3.70
2023-05-12T18:42:46.778Z,3.70
2023-05-12T18:45:13.937Z,5.03
2023-05-12T18:47:41.472Z,3.78
2023-05-12T18:50:08.992Z,3.90
2023-05-12T18:52:36.398Z,4.05
2023-05-12T18:55:03.913Z,4.03
2023-05-12T18:57:31.092Z,4.10
2023-05-12T18:59:58.336Z,3.78
2023-05-12T19:02:25.486Z,4.00
2023-05-12T19:04:52.913Z,4.47
2023-05-12T19:07:20.123Z,3.80
2023-05-12T19:09:47.328Z,4.43
2023-05-12T19:12:14.558Z,4.28
2023-05-12T19:14:43.277Z,4.35
2023-05-12T19:17:10.996Z,4.85
2023-05-12T19:19:38.594Z,4.28
2023-05-12T19:22:05.865Z,4.57
2023-05-12T19:24:34.391Z,4.22
2023-05-12T19:27:01.550Z,3.95
2023-05-12T19:29:28.664Z,5.13
2023-05-12T19:31:56.002Z,3.80
2023-05-12T19:34:24.003Z,3.90
2023-05-12T19:36:53.049Z,4.28
2023-05-12T19:39:20.314Z,4.72
2023-05-12T19:41:47.662Z,5.00
2023-05-12T19:44:14.816Z,3.78
2023-05-12T19:46:42.046Z,5.10
2023-05-12T19:49:09.431Z,5.82
2023-05-12T19:51:36.564Z,4.28
2023-05-12T19:54:06.757Z,4.15
2023-05-12T19:56:34.329Z,4.50
2023-05-12T19:59:01.605Z,4.32
2023-05-12T20:01:29.064Z,7.60
2023-05-12T20:03:56.312Z,5.28
2023-05-12T20:06:25.098Z,4.80
2023-05-12T20:08:52.672Z,4.50
2023-05-12T20:11:19.966Z,9.00
2023-05-12T20:13:47.102Z,5.32
2023-05-12T20:16:14.453Z,8.30
2023-05-12T20:18:41.740Z,5.50
2023-05-12T20:21:08.925Z,7.68
2023-05-12T20:23:36.395Z,5.13
2023-05-12T20:26:04.355Z,6.50
2023-05-12T20:28:31.496Z,6.20
2023-05-12T20:30:58.660Z,5.90
2023-05-12T20:33:25.849Z,7.57
2023-05-12T20:35:53.138Z,6.63
2023-05-12T20:38:20.879Z,6.95
2023-05-12T20:40:47.993Z,11.07
2023-05-12T20:43:15.251Z,6.38
2023-05-12T20:45:42.666Z,6.32
2023-05-12T20:48:09.934Z,9.38
2023-05-12T20:50:37.096Z,7.10
2023-05-12T20:53:04.781Z,5.28
2023-05-12T20:55:35.464Z,7.82
2023-05-12T20:58:02.652Z,6.65
2023-05-12T21:00:29.795Z,7.55
2023-05-12T21:02:58.217Z,8.80
2023-05-12T21:05:25.805Z,6.63
2023-05-12T21:07:53.050Z,6.70
2023-05-12T21:10:21.222Z,6.20
2023-05-12T21:12:48.589Z,5.75
2023-05-12T21:15:15.721Z,7.03
2023-05-12T21:17:43.043Z,6.72
2023-05-12T21:20:11.983Z,7.30
2023-05-12T21:22:40.859Z,4.97
2023-05-12T21:25:08.421Z,7.13
2023-05-12T21:27:40.600Z,8.35
2023-05-12T21:30:09.837Z,11.20
2023-05-12T21:32:37.195Z,5.20
2023-05-12T21:35:04.954Z,5.90
2023-05-12T21:37:32.243Z,6.10
2023-05-12T21:39:59.820Z,8.13
2023-05-12T21:42:26.974Z,5.70
2023-05-12T21:44:57.093Z,5.60
2023-05-12T21:47:24.320Z,6.20
2023-05-12T21:49:57.267Z,7.53
2023-05-12T21:52:31.559Z,8.05
2023-05-12T21:55:09.014Z,6.90
2023-05-12T21:57:42.407Z,8.32
2023-05-12T22:00:18.096Z,9.02
2023-05-12T22:02:55.869Z,6.65
2023-05-12T22:05:48.706Z,5.57
2023-05-12T22:08:16.388Z,6.90
2023-05-12T22:10:43.818Z,7.53
2023-05-12T22:13:14.046Z,7.88
2023-05-12T22:15:44.262Z,6.78
2023-05-12T22:18:24.671Z,6.13
2023-05-12T22:20:52.149Z,9.63
2023-05-12T22:23:19.486Z,7.80
2023-05-12T22:25:49.879Z,6.45
2023-05-12T22:28:17.000Z,6.70
2023-05-12T22:30:44.047Z,11.02
2023-05-12T22:33:11.257Z,10.13
2023-05-12T22:35:38.421Z,7.82
2023-05-12T22:38:05.846Z,7.88
2023-05-12T22:40:33.897Z,10.35
2023-05-12T22:43:01.080Z,7.97
2023-05-12T22:45:28.158Z,6.97
2023-05-12T22:47:55.682Z,8.27
2023-05-12T22:50:23.337Z,9.30
2023-05-12T22:52:52.851Z,8.00
2023-05-12T22:55:20.138Z,9.07
2023-05-12T22:57:47.297Z,10.20
2023-05-12T23:00:14.799Z,10.27
2023-05-12T23:02:41.999Z,6.40
2023-05-12T23:05:09.849Z,5.63
2023-05-12T23:07:37.046Z,6.90
2023-05-12T23:10:04.443Z,6.22
2023-05-12T23:12:31.537Z,8.18
2023-05-12T23:14:58.664Z,6.47
2023-05-12T23:17:25.888Z,6.60
2023-05-12T23:19:53.588Z,8.60
2023-05-12T23:22:20.768Z,9.90
2023-05-12T23:24:47.903Z,6.30
2023-05-12T23:27:15.141Z,8.30
2023-05-12T23:29:42.258Z,7.78
2023-05-12T23:32:09.487Z,8.90
2023-05-12T23:34:40.284Z,8.75
2023-05-12T23:37:07.804Z,7.55
2023-05-12T23:39:35.102Z,6.13
2023-05-12T23:42:02.651Z,10.07
2023-05-12T23:44:30.655Z,11.75
2023-05-12T23:46:57.843Z,6.90
2023-05-12T23:49:24.985Z,7.55
2023-05-12T23:51:52.121Z,8.10
2023-05-12T23:54:19.479Z,8.40
2023-05-12T23:56:54.890Z,10.48
2023-05-12T23:59:24.795Z,7.35
